Time;durP1;ratioP1;P1;durP2;ratioP2;P2;SDS_P1;SDS_P2;PMS_P1;PMS_P2;Temp;Humidity;BMP_temperature;BMP_pressure;BME280_temperature;BME280_humidity;BME280_pressure;Samples;Min_cycle;Max_cycle;Signal;HPM_P1;HPM_P2
2023/04/24 00:00:56;;;;;;;1.42;0.57;;;;;;;10.01;100.00;97739.50;4952691;28;20073;-77
2023/04/24 00:03:22;;;;;;;5.10;0.60;;;;;;;10.18;100.00;97748.63;4955844;28;20030;-78
2023/04/24 00:05:47;;;;;;;1.17;0.55;;;;;;;10.30;100.00;97757.66;4955407;28;20066;-76
2023/04/24 00:08:13;;;;;;;0.50;0.50;;;;;;;10.35;100.00;97742.63;4971096;28;20069;-78
2023/04/24 00:10:38;;;;;;;1.15;0.68;;;;;;;10.33;100.00;97726.66;4973578;28;20026;-77
2023/04/24 00:13:04;;;;;;;1.30;0.52;;;;;;;10.53;100.00;97750.69;4959691;28;20031;-76
2023/04/24 00:15:29;;;;;;;1.98;0.90;;;;;;;10.56;100.00;97744.84;4952185;28;20027;-75
2023/04/24 00:17:55;;;;;;;2.22;0.80;;;;;;;10.58;100.00;97736.50;4959870;28;20524;-76
2023/04/24 00:20:21;;;;;;;2.97;1.00;;;;;;;10.64;100.00;97743.72;4955764;28;20485;-78
2023/04/24 00:22:46;;;;;;;2.92;0.90;;;;;;;10.67;100.00;97752.19;4972448;28;20109;-76
2023/04/24 00:25:11;;;;;;;2.05;0.82;;;;;;;10.65;100.00;97754.28;4954396;28;20074;-77
2023/04/24 00:27:38;;;;;;;1.42;0.70;;;;;;;10.67;100.00;97751.38;4957829;28;20031;-77
2023/04/24 00:30:04;;;;;;;1.63;0.80;;;;;;;10.61;100.00;97745.00;4954939;28;20041;-76
2023/04/24 00:32:29;;;;;;;2.90;0.60;;;;;;;10.57;100.00;97735.69;4973215;28;20097;-76
2023/04/24 00:34:55;;;;;;;5.13;0.60;;;;;;;10.60;100.00;97739.81;4972815;28;20467;-77
2023/04/24 00:37:20;;;;;;;2.30;0.68;;;;;;;10.58;100.00;97752.72;4955747;28;20490;-78
2023/04/24 00:39:45;;;;;;;2.58;0.45;;;;;;;10.43;100.00;97739.63;4955444;28;20035;-76
2023/04/24 00:42:11;;;;;;;0.85;0.50;;;;;;;10.51;100.00;97747.41;4975211;28;20027;-77
2023/04/24 00:44:37;;;;;;;0.90;0.50;;;;;;;10.34;100.00;97728.28;4965614;28;20022;-77
2023/04/24 00:47:02;;;;;;;0.90;0.50;;;;;;;10.45;100.00;97741.06;4975801;28;20061;-77
2023/04/24 00:49:28;;;;;;;1.20;0.70;;;;;;;10.54;100.00;97752.38;4955231;28;20102;-77
2023/04/24 00:51:53;;;;;;;2.03;0.60;;;;;;;10.58;100.00;97758.94;4975266;28;20039;-77
2023/04/24 00:54:19;;;;;;;2.15;0.57;;;;;;;10.52;100.00;97739.06;4956341;28;20057;-78
2023/04/24 00:56:45;;;;;;;2.60;0.70;;;;;;;10.45;100.00;97724.81;4973172;28;20035;-78
2023/04/24 00:59:12;;;;;;;8.10;0.60;;;;;;;10.42;100.00;97724.44;4960998;29;20023;-80
2023/04/24 01:01:41;;;;;;;2.35;0.70;;;;;;;10.39;100.00;97716.78;4983358;28;20042;-80
2023/04/24 01:04:08;;;;;;;0.90;0.60;;;;;;;10.34;100.00;97706.66;4959077;28;20030;-79
2023/04/24 01:06:33;;;;;;;2.15;0.40;;;;;;;10.37;100.00;97718.91;4961936;28;20113;-79
2023/04/24 01:09:00;;;;;;;1.52;0.60;;;;;;;10.44;100.00;97735.88;4960995;28;20090;-79
2023/04/24 01:11:25;;;;;;;4.75;0.60;;;;;;;10.44;100.00;97722.34;4972059;28;20030;-78
2023/04/24 01:13:51;;;;;;;1.40;0.60;;;;;;;9.98;100.00;97656.16;4958327;28;20018;-78
2023/04/24 01:16:17;;;;;;;2.28;0.77;;;;;;;10.17;100.00;97695.63;4958919;28;20118;-78
2023/04/24 01:18:43;;;;;;;1.23;0.57;;;;;;;10.44;100.00;97736.69;4976108;28;20022;-78
2023/04/24 01:21:10;;;;;;;1.63;0.57;;;;;;;10.41;100.00;97723.63;4963894;28;20433;-80
2023/04/24 01:23:36;;;;;;;2.55;0.40;;;;;;;10.39;100.00;97708.69;4958576;28;20027;-78
2023/04/24 01:26:01;;;;;;;1.75;0.55;;;;;;;10.47;100.00;97721.88;4958032;28;20073;-77
2023/04/24 01:28:27;;;;;;;4.22;0.63;;;;;;;10.44;100.00;97716.94;4983720;28;20492;-78
2023/04/24 01:30:53;;;;;;;1.85;0.40;;;;;;;10.40;100.00;97703.06;4965036;28;20831;-78
2023/04/24 01:33:21;;;;;;;2.03;0.50;;;;;;;10.55;100.00;97718.03;4974533;28;20118;-78
2023/04/24 01:35:47;;;;;;;0.90;0.50;;;;;;;10.36;100.00;97698.34;4960802;28;20023;-76
2023/04/24 01:38:12;;;;;;;1.40;0.70;;;;;;;10.40;100.00;97713.88;4958626;28;20019;-77
2023/04/24 01:40:38;;;;;;;0.70;0.40;;;;;;;10.46;100.00;97704.00;4952123;28;20392;-77
2023/04/24 01:43:03;;;;;;;1.85;0.40;;;;;;;10.51;100.00;97712.25;4975547;28;20471;-76
2023/04/24 01:45:28;;;;;;;0.70;0.30;;;;;;;10.41;100.00;97683.06;4961711;28;20035;-76
2023/04/24 01:47:54;;;;;;;0.93;0.50;;;;;;;10.47;100.00;97689.44;4980228;28;20026;-76
2023/04/24 01:50:19;;;;;;;2.65;0.47;;;;;;;10.34;100.00;97665.28;4957768;28;20569;-78
2023/04/24 01:52:45;;;;;;;5.65;0.47;;;;;;;10.43;100.00;97685.56;4959099;28;20093;-77
2023/04/24 01:55:10;;;;;;;1.05;0.60;;;;;;;10.43;100.00;97699.88;4975137;28;20022;-79
2023/04/24 01:57:36;;;;;;;1.05;0.40;;;;;;;10.46;100.00;97704.00;4960775;28;20065;-79
2023/04/24 02:00:04;;;;;;;1.17;0.43;;;;;;;10.43;100.00;97696.38;4960220;28;20038;-81
2023/04/24 02:02:29;;;;;;;0.88;0.43;;;;;;;10.28;100.00;97685.97;4970046;28;20034;-82
2023/04/24 02:04:55;;;;;;;1.75;0.60;;;;;;;10.26;100.00;97696.94;4984022;28;20047;-80
2023/04/24 02:07:20;;;;;;;1.73;0.65;;;;;;;10.10;100.00;97681.38;4993132;28;20018;-78
2023/04/24 02:09:45;;;;;;;2.75;0.40;;;;;;;10.06;100.00;97680.16;4958247;28;20031;-77
2023/04/24 02:12:11;;;;;;;3.17;0.55;;;;;;;10.24;100.00;97703.63;4958085;28;20048;-79
2023/04/24 02:14:36;;;;;;;3.65;0.60;;;;;;;10.24;100.00;97715.31;4974206;28;20495;-78
2023/04/24 02:17:01;;;;;;;0.77;0.43;;;;;;;10.05;100.00;97687.47;4958235;28;20046;-77
2023/04/24 02:19:27;;;;;;;0.90;0.45;;;;;;;10.10;100.00;97687.59;4962063;28;20088;-80
2023/04/24 02:21:52;;;;;;;7.03;1.00;;;;;;;10.10;100.00;97681.38;4961250;28;21544;-79
2023/04/24 02:24:17;;;;;;;0.63;0.30;;;;;;;10.15;100.00;97686.09;4958556;28;20049;-77
2023/04/24 02:26:43;;;;;;;0.70;0.38;;;;;;;10.37;100.00;97705.38;4975764;28;20041;-79
2023/04/24 02:29:08;;;;;;;2.47;0.50;;;;;;;10.43;100.00;97699.06;4972360;28;20038;-80
2023/04/24 02:31:33;;;;;;;4.15;0.68;;;;;;;10.34;100.00;97678.81;4946630;28;20038;-76
2023/04/24 02:33:59;;;;;;;0.95;0.47;;;;;;;10.53;100.00;97707.44;4952170;28;20457;-77
2023/04/24 02:36:24;;;;;;;1.60;0.50;;;;;;;10.36;100.00;97665.88;4956510;28;20022;-77
2023/04/24 02:38:50;;;;;;;1.23;0.57;;;;;;;10.50;100.00;97692.50;4967870;28;20023;-79
2023/04/24 02:41:15;;;;;;;5.60;0.70;;;;;;;10.47;100.00;97690.25;4974690;28;20029;-79
2023/04/24 02:43:41;;;;;;;1.10;0.40;;;;;;;10.48;100.00;97693.81;4976517;28;20105;-80
2023/04/24 02:46:06;;;;;;;1.63;0.50;;;;;;;10.38;100.00;97690.81;4990747;28;20034;-80
2023/04/24 02:48:31;;;;;;;3.20;0.50;;;;;;;10.10;100.00;97652.47;4989917;28;20040;-81
2023/04/24 02:50:57;;;;;;;1.20;0.40;;;;;;;10.33;100.00;97696.91;4972146;28;20031;-78
2023/04/24 02:53:23;;;;;;;3.28;0.95;;;;;;;10.34;100.00;97692.31;4976030;28;20106;-78
2023/04/24 02:55:48;;;;;;;1.67;0.80;;;;;;;10.35;100.00;97700.22;4959071;28;20102;-80
2023/04/24 02:58:14;;;;;;;3.40;0.80;;;;;;;10.45;100.00;97694.25;4956712;28;20030;-78
2023/04/24 03:00:39;;;;;;;4.28;0.70;;;;;;;10.47;100.00;97703.75;4960866;28;20668;-78
2023/04/24 03:03:05;;;;;;;3.30;0.43;;;;;;;10.35;100.00;97673.19;4966086;28;20049;-78
2023/04/24 03:05:30;;;;;;;1.58;0.50;;;;;;;10.46;100.00;97687.78;4956125;28;20027;-80
2023/04/24 03:07:56;;;;;;;1.10;0.50;;;;;;;10.42;100.00;97698.22;4956669;28;20027;-77
2023/04/24 03:10:24;;;;;;;2.88;0.75;;;;;;;10.29;100.00;97699.22;4957639;28;20023;-79
2023/04/24 03:12:49;;;;;;;1.33;0.50;;;;;;;10.15;100.00;97684.22;4971463;28;20038;-79
2023/04/24 03:15:15;;;;;;;3.03;0.70;;;;;;;10.07;100.00;97676.44;4957877;28;20623;-78
2023/04/24 03:17:40;;;;;;;1.08;0.60;;;;;;;10.06;100.00;97674.75;4959189;28;20095;-79
2023/04/24 03:20:07;;;;;;;1.17;0.65;;;;;;;9.88;100.00;97643.22;4957244;28;20030;-79
2023/04/24 03:22:33;;;;;;;1.63;0.43;;;;;;;10.17;100.00;97689.41;4957349;28;20401;-79
2023/04/24 03:24:59;;;;;;;5.78;0.95;;;;;;;9.96;100.00;97658.28;4956793;28;20027;-79
2023/04/24 03:27:24;;;;;;;1.90;0.57;;;;;;;10.08;100.00;97680.78;4975024;28;20034;-80
2023/04/24 03:29:53;;;;;;;1.70;0.40;;;;;;;10.14;100.00;97700.66;4956493;28;20019;-78
2023/04/24 03:32:18;;;;;;;;;;;;;;;10.20;100.00;97716.78;4958666;28;20022;-79
2023/04/24 03:34:44;;;;;;;0.68;0.32;;;;;;;10.08;100.00;97686.19;4983486;28;19929;-80
2023/04/24 03:37:09;;;;;;;0.63;0.28;;;;;;;10.18;100.00;97699.97;4959703;28;20026;-80
2023/04/24 03:39:35;;;;;;;3.80;0.77;;;;;;;10.22;100.00;97690.38;4956713;28;20031;-79
2023/04/24 03:42:00;;;;;;;1.00;0.50;;;;;;;10.18;100.00;97678.34;4957853;28;20026;-79
2023/04/24 03:44:25;;;;;;;2.15;0.38;;;;;;;10.12;100.00;97665.75;4957980;28;20104;-80
2023/04/24 03:46:50;;;;;;;2.35;0.60;;;;;;;10.18;100.00;97677.53;4957034;28;20027;-78
2023/04/24 03:49:16;;;;;;;1.17;0.57;;;;;;;10.22;100.00;97682.25;4958874;28;20031;-78
2023/04/24 03:51:41;;;;;;;2.45;0.50;;;;;;;10.22;100.00;97690.38;4961039;28;20023;-79
2023/04/24 03:54:06;;;;;;;1.50;0.55;;;;;;;10.11;100.00;97666.78;4951097;28;20079;-85
2023/04/24 03:56:32;;;;;;;1.83;0.57;;;;;;;10.27;100.00;97701.34;4960086;28;20098;-85
2023/04/24 03:58:59;;;;;;;0.80;0.50;;;;;;;10.18;100.00;97683.75;4965395;28;20034;-84
2023/04/24 04:01:24;;;;;;;1.30;0.40;;;;;;;10.23;100.00;97705.53;4973636;28;20026;-86
2023/04/24 04:03:50;;;;;;;2.58;0.43;;;;;;;10.23;100.00;97702.81;4981855;28;20018;-88
2023/04/24 04:06:15;;;;;;;6.13;0.50;;;;;;;10.27;100.00;97712.16;4978494;28;20025;-89
2023/04/24 04:08:40;;;;;;;4.15;0.70;;;;;;;10.31;100.00;97728.75;4991723;28;20086;-87
2023/04/24 04:11:06;;;;;;;1.27;0.47;;;;;;;10.13;100.00;97715.22;4979451;28;20103;-89
2023/04/24 04:13:31;;;;;;;0.73;0.50;;;;;;;10.13;100.00;97745.78;4986870;28;20104;-83
2023/04/24 04:15:56;;;;;;;3.08;0.70;;;;;;;10.10;100.00;97754.34;4973856;28;20019;-83
2023/04/24 04:18:22;;;;;;;1.42;0.55;;;;;;;9.85;100.00;97744.44;4969090;28;20026;-82
2023/04/24 04:20:47;;;;;;;2.33;0.50;;;;;;;9.94;100.00;97779.28;4962076;28;20050;-86
2023/04/24 04:23:12;;;;;;;2.35;0.50;;;;;;;9.66;100.00;97762.50;4958923;28;20111;-89
2023/04/24 04:25:37;;;;;;;0.52;0.35;;;;;;;9.64;100.00;97790.78;4962507;28;20085;-79
2023/04/24 04:28:04;;;;;;;0.93;0.50;;;;;;;9.49;100.00;97803.81;4961179;28;20524;-85
2023/04/24 04:30:31;;;;;;;0.70;0.30;;;;;;;9.17;100.00;97768.78;4961076;28;20037;-83
2023/04/24 04:32:57;;;;;;;4.28;0.60;;;;;;;9.24;100.00;97801.91;4965909;28;20401;-81
2023/04/24 04:35:23;;;;;;;5.38;1.70;;;;;;;9.28;100.00;97815.81;4974545;28;20031;-78
2023/04/24 04:37:49;;;;;;;2.58;0.57;;;;;;;9.13;100.00;97805.31;4978814;28;20082;-80
2023/04/24 04:40:14;;;;;;;1.05;0.70;;;;;;;9.00;100.00;97825.94;4961715;28;20046;-84
2023/04/24 04:42:40;;;;;;;0.70;0.50;;;;;;;8.81;100.00;97786.44;4975957;28;20027;-79
2023/04/24 04:45:08;;;;;;;0.93;0.70;;;;;;;8.76;100.00;97805.97;4984865;28;20090;-76
2023/04/24 04:47:34;;;;;;;1.87;0.70;;;;;;;8.75;100.00;97820.50;4996489;28;20105;-79
2023/04/24 04:49:59;;;;;;;0.98;0.73;;;;;;;8.90;100.00;97855.25;4981655;28;20756;-74
2023/04/24 04:52:26;;;;;;;4.22;0.77;;;;;;;8.60;100.00;97825.34;4971870;28;20501;-79
2023/04/24 04:54:51;;;;;;;1.63;0.73;;;;;;;8.75;100.00;97836.69;4963343;28;20412;-85
2023/04/24 04:57:17;;;;;;;5.57;0.75;;;;;;;8.81;100.00;97864.66;4963791;28;20023;-82
2023/04/24 04:59:44;;;;;;;2.20;0.70;;;;;;;8.54;100.00;97826.19;4964549;28;20401;-81
2023/04/24 05:02:10;;;;;;;0.80;0.70;;;;;;;8.68;100.00;97854.75;4964222;28;20027;-80
2023/04/24 05:04:35;;;;;;;2.75;1.05;;;;;;;8.59;100.00;97852.53;4963302;28;20039;-82
2023/04/24 05:07:00;;;;;;;1.55;0.82;;;;;;;8.52;100.00;97847.16;4955081;28;20038;-74
2023/04/24 05:09:27;;;;;;;3.08;0.90;;;;;;;8.76;100.00;97872.56;4974798;28;20097;-70
2023/04/24 05:11:52;;;;;;;1.20;0.82;;;;;;;8.69;100.00;97887.94;4975233;28;20035;-68
2023/04/24 05:14:18;;;;;;;1.08;0.90;;;;;;;8.63;100.00;97883.41;4975707;28;20031;-81
2023/04/24 05:16:44;;;;;;;0.90;0.70;;;;;;;8.73;100.00;97897.28;4956734;28;20408;-77
2023/04/24 05:19:11;;;;;;;1.38;0.70;;;;;;;8.63;100.00;97888.81;4968250;28;20019;-76
2023/04/24 05:21:37;;;;;;;2.20;1.08;;;;;;;8.72;100.00;97893.75;4956384;28;20038;-78
2023/04/24 05:24:02;;;;;;;1.48;1.10;;;;;;;8.71;100.00;97888.56;4963865;28;20022;-75
2023/04/24 05:26:28;;;;;;;1.35;0.75;;;;;;;8.85;100.00;97909.03;4959125;28;20019;-79
2023/04/24 05:28:53;;;;;;;2.03;0.80;;;;;;;8.85;100.00;97900.94;4974141;28;20085;-77
2023/04/24 05:31:20;;;;;;;1.73;0.90;;;;;;;9.05;100.00;97908.13;4961526;28;20046;-72
2023/04/24 05:33:45;;;;;;;2.63;0.73;;;;;;;9.05;100.00;97887.34;4980006;28;20113;-72
2023/04/24 05:36:10;;;;;;;0.88;0.70;;;;;;;9.03;100.00;97873.25;4975626;28;20042;-71
2023/04/24 05:38:36;;;;;;;2.25;0.75;;;;;;;9.25;100.00;97900.75;4977463;28;20100;-77
2023/04/24 05:41:01;;;;;;;2.10;1.20;;;;;;;8.99;100.00;97875.56;4974982;28;20113;-75
2023/04/24 05:43:26;;;;;;;2.65;1.10;;;;;;;9.03;100.00;97897.53;4958724;28;20121;-72
2023/04/24 05:45:53;;;;;;;2.08;1.17;;;;;;;9.16;100.00;97891.25;4975629;28;20054;-75
2023/04/24 05:48:19;;;;;;;1.25;0.77;;;;;;;9.24;100.00;97888.28;4960020;28;20019;-78
2023/04/24 05:50:45;;;;;;;3.72;1.17;;;;;;;9.42;100.00;97920.75;4957053;28;20069;-77
2023/04/24 05:53:10;;;;;;;1.75;0.95;;;;;;;9.39;100.00;97907.69;4974320;28;20026;-75
2023/04/24 05:55:36;;;;;;;1.50;1.10;;;;;;;9.30;100.00;97903.63;4981126;28;20029;-72
2023/04/24 05:58:01;;;;;;;1.88;0.93;;;;;;;9.21;100.00;97910.31;4993278;28;20018;-75
2023/04/24 06:00:27;;;;;;;4.32;1.30;;;;;;;9.08;100.00;97932.78;4965935;28;20033;-73
2023/04/24 06:02:55;;;;;;;2.20;1.08;;;;;;;9.09;100.00;97928.22;4958129;28;20126;-76
2023/04/24 06:05:20;;;;;;;4.10;1.52;;;;;;;9.02;100.00;97936.34;4957808;28;20031;-72
2023/04/24 06:07:47;;;;;;;3.10;1.45;;;;;;;9.29;100.00;97945.13;4974403;28;20034;-77
2023/04/24 06:10:13;;;;;;;2.17;1.20;;;;;;;11.97;100.00;97896.84;4960171;28;20035;-77
2023/04/24 06:12:39;;;;;;;2.33;1.00;;;;;;;14.97;100.00;97901.75;4960389;28;20027;-73
2023/04/24 06:15:05;;;;;;;2.47;0.82;;;;;;;17.57;100.00;97904.72;4957258;28;20113;-77
2023/04/24 06:17:32;;;;;;;1.73;0.98;;;;;;;18.50;100.00;97894.63;4965774;28;20105;-75
2023/04/24 06:19:58;;;;;;;2.50;1.08;;;;;;;19.58;100.00;97881.31;4958693;28;20073;-74
2023/04/24 06:22:24;;;;;;;2.15;0.95;;;;;;;20.91;88.77;97896.63;4974901;28;20093;-74
2023/04/24 06:24:49;;;;;;;2.08;0.70;;;;;;;20.73;82.78;97874.28;4974859;28;20390;-74
2023/04/24 06:27:15;;;;;;;2.08;0.93;;;;;;;22.18;68.43;97895.94;4975118;28;20039;-74
2023/04/24 06:29:40;;;;;;;1.30;0.88;;;;;;;22.86;61.68;97881.47;4956828;28;20027;-73
2023/04/24 06:32:05;;;;;;;2.97;0.80;;;;;;;21.61;64.44;97882.22;4945007;29;20405;-74
2023/04/24 06:34:32;;;;;;;2.53;0.90;;;;;;;19.87;71.06;97895.94;4953215;28;20212;-71
2023/04/24 06:36:58;;;;;;;1.60;0.90;;;;;;;18.10;93.17;97894.41;4972788;28;20023;-74
2023/04/24 06:39:23;;;;;;;1.10;0.75;;;;;;;17.48;100.00;97907.16;4956076;28;20030;-74
2023/04/24 06:41:48;;;;;;;1.45;0.95;;;;;;;16.48;100.00;97887.31;4949033;28;20126;-74
2023/04/24 06:44:14;;;;;;;1.27;0.80;;;;;;;15.76;100.00;97889.53;4956798;28;20027;-75
2023/04/24 06:46:41;;;;;;;2.35;1.23;;;;;;;15.31;100.00;97890.69;4955914;28;20150;-76
2023/04/24 06:49:06;;;;;;;1.80;1.00;;;;;;;14.43;100.00;97886.03;4955777;28;20114;-72
2023/04/24 06:51:32;;;;;;;1.83;1.20;;;;;;;13.25;100.00;97902.28;4974328;28;20023;-77
2023/04/24 06:53:58;;;;;;;4.60;1.38;;;;;;;12.81;100.00;97901.13;4956123;28;20101;-71
2023/04/24 06:56:25;;;;;;;1.40;1.00;;;;;;;12.91;100.00;97902.16;4972648;28;20748;-75
2023/04/24 06:58:51;;;;;;;2.97;0.95;;;;;;;12.45;100.00;97889.53;4967375;28;20031;-71
2023/04/24 07:01:17;;;;;;;3.17;1.42;;;;;;;12.74;100.00;97895.03;4970732;28;20404;-74
2023/04/24 07:03:42;;;;;;;3.90;1.40;;;;;;;14.77;100.00;97885.16;4955133;28;20034;-75
2023/04/24 07:06:12;;;;;;;1.30;1.00;;;;;;;17.44;100.00;97877.88;4957397;28;20056;-74
2023/04/24 07:08:38;;;;;;;2.75;0.80;;;;;;;16.64;100.00;97889.88;5026555;23;20054;-61
2023/04/24 07:11:04;;;;;;;1.58;0.85;;;;;;;16.44;100.00;97887.03;5017826;28;20076;-61
2023/04/24 07:13:29;;;;;;;1.55;1.25;;;;;;;15.10;100.00;97893.19;5018627;28;20156;-61
2023/04/24 07:15:56;;;;;;;2.58;1.10;;;;;;;16.10;100.00;97879.16;5018249;28;20049;-61
2023/04/24 07:18:21;;;;;;;3.53;1.00;;;;;;;17.29;100.00;97884.97;5000803;28;20358;-61
2023/04/24 07:20:47;;;;;;;2.03;0.90;;;;;;;19.09;96.45;97880.19;5001417;28;20085;-61
2023/04/24 07:23:13;;;;;;;2.17;1.10;;;;;;;20.02;78.89;97885.94;4996154;28;20381;-62
2023/04/24 07:25:39;;;;;;;2.42;1.25;;;;;;;18.45;77.19;97891.91;4988148;28;20437;-62
2023/04/24 07:28:05;;;;;;;2.45;1.40;;;;;;;17.22;84.27;97905.47;4991833;28;20030;-61
2023/04/24 07:30:32;;;;;;;2.40;0.93;;;;;;;14.46;96.67;97892.88;4995593;28;20032;-61
2023/04/24 07:32:58;;;;;;;3.08;1.40;;;;;;;13.15;100.00;97915.66;4994913;28;20034;-61
2023/04/24 07:35:25;;;;;;;1.52;1.00;;;;;;;13.59;100.00;97914.06;5008478;28;20125;-61
2023/04/24 07:37:51;;;;;;;6.45;1.48;;;;;;;13.16;100.00;97918.13;5000952;28;20122;-61
2023/04/24 07:40:16;;;;;;;2.08;1.00;;;;;;;14.19;100.00;97925.41;4995464;28;20022;-61
2023/04/24 07:42:43;;;;;;;2.75;1.00;;;;;;;14.11;100.00;97921.19;5013988;28;20157;-69
2023/04/24 07:45:09;;;;;;;2.25;0.93;;;;;;;13.43;100.00;97936.59;4992744;28;20359;-67
2023/04/24 07:47:36;;;;;;;4.28;0.90;;;;;;;13.66;100.00;97954.69;5006343;28;20037;-60
2023/04/24 07:50:01;;;;;;;1.23;0.73;;;;;;;13.37;100.00;97945.75;4989185;28;20022;-61
2023/04/24 07:52:27;;;;;;;1.60;0.90;;;;;;;14.25;100.00;97946.16;5009750;28;20108;-61
2023/04/24 07:54:58;;;;;;;9.07;1.20;;;;;;;13.98;100.00;97948.72;4993745;28;20029;-61
2023/04/24 07:57:24;;;;;;;5.13;1.67;;;;;;;14.92;97.30;97948.00;5009544;28;20380;-61
2023/04/24 07:59:50;;;;;;;1.13;0.90;;;;;;;13.96;100.00;97964.47;5000187;28;20065;-60
2023/04/24 08:02:16;;;;;;;1.20;0.80;;;;;;;13.46;100.00;97957.03;4996490;28;20053;-60
2023/04/24 08:04:41;;;;;;;4.00;0.77;;;;;;;13.54;100.00;97948.50;4995422;28;20018;-61
2023/04/24 08:07:07;;;;;;;1.40;0.75;;;;;;;12.99;100.00;97974.25;4999606;28;20116;-60
2023/04/24 08:09:32;;;;;;;2.60;0.95;;;;;;;13.19;100.00;97963.00;5023932;28;20063;-61
2023/04/24 08:11:57;;;;;;;2.33;0.88;;;;;;;14.89;92.58;97964.84;5016807;28;20030;-61
2023/04/24 08:14:23;;;;;;;1.13;0.65;;;;;;;18.33;70.99;97957.88;5016789;28;20080;-60
2023/04/24 08:16:48;;;;;;;1.00;0.60;;;;;;;18.39;67.04;97959.53;5013132;28;20022;-61
2023/04/24 08:19:14;;;;;;;2.08;0.75;;;;;;;18.97;60.19;97965.50;5000055;28;20031;-61
2023/04/24 08:21:39;;;;;;;1.88;0.40;;;;;;;20.25;55.45;97981.34;5014473;28;20121;-61
2023/04/24 08:24:07;;;;;;;0.60;0.43;;;;;;;22.29;51.38;97967.13;5025419;28;20065;-62
2023/04/24 08:26:33;;;;;;;1.13;0.70;;;;;;;20.21;50.27;97985.75;5013708;28;20448;-62
2023/04/24 08:28:58;;;;;;;1.40;0.32;;;;;;;22.02;49.03;97989.03;4998350;28;20109;-63
2023/04/24 08:31:24;;;;;;;2.47;0.70;;;;;;;21.55;49.94;97986.09;4999783;28;20420;-62
2023/04/24 08:33:50;;;;;;;1.63;0.70;;;;;;;20.97;49.83;97998.00;4998635;28;20037;-61
2023/04/24 08:36:15;;;;;;;1.35;0.50;;;;;;;22.18;48.04;97986.88;5011079;28;20076;-62
2023/04/24 08:38:42;;;;;;;2.33;1.00;;;;;;;21.84;48.13;97985.16;4997286;28;20044;-62
2023/04/24 08:41:09;;;;;;;0.50;0.50;;;;;;;24.50;44.25;97982.88;5004850;28;20030;-62
2023/04/24 08:43:36;;;;;;;1.80;0.60;;;;;;;22.83;45.02;97992.41;4999776;28;20029;-61
2023/04/24 08:46:02;;;;;;;2.00;0.60;;;;;;;21.37;48.15;97989.59;4996445;28;20030;-62
2023/04/24 08:48:27;;;;;;;3.35;0.70;;;;;;;19.64;51.62;97987.97;5007804;28;20022;-62
2023/04/24 08:50:54;;;;;;;1.67;0.65;;;;;;;19.14;51.21;97997.25;5000031;28;20544;-62
2023/04/24 08:53:19;;;;;;;1.55;0.73;;;;;;;16.84;57.18;98001.19;5002270;28;20018;-63
2023/04/24 08:55:48;;;;;;;2.35;0.70;;;;;;;14.89;64.55;98001.06;5002448;28;20112;-62
2023/04/24 08:58:15;;;;;;;2.28;0.70;;;;;;;14.14;72.28;98001.50;5000782;28;20362;-62
2023/04/24 09:00:46;;;;;;;2.70;0.77;;;;;;;14.90;74.23;98010.06;5015489;28;20376;-62
2023/04/24 09:03:14;;;;;;;3.35;0.40;;;;;;;14.73;76.63;97998.38;5009853;28;20025;-62
2023/04/24 09:05:40;;;;;;;2.15;0.52;;;;;;;14.81;77.48;98012.38;5025433;28;20014;-62
2023/04/24 09:08:07;;;;;;;2.55;0.40;;;;;;;14.09;79.64;98004.13;5002095;28;20033;-69
2023/04/24 09:10:34;;;;;;;1.95;0.60;;;;;;;14.18;84.46;98030.69;5024239;28;20032;-68
2023/04/24 09:13:01;;;;;;;1.88;0.70;;;;;;;14.44;85.82;98031.13;5013531;28;20091;-68
2023/04/24 09:15:27;;;;;;;1.80;0.50;;;;;;;15.01;82.18;98017.31;5013813;28;20044;-68
2023/04/24 09:17:57;;;;;;;1.38;0.45;;;;;;;16.37;69.84;98018.31;4991643;28;20457;-68
2023/04/24 09:20:22;;;;;;;1.17;0.40;;;;;;;18.95;57.43;98013.47;5015176;28;20025;-62
2023/04/24 09:22:48;;;;;;;0.75;0.30;;;;;;;21.35;52.30;98005.56;5013270;28;20105;-62
2023/04/24 09:25:13;;;;;;;1.23;0.47;;;;;;;22.95;49.03;98003.78;5017027;28;20539;-61
2023/04/24 09:27:45;;;;;;;2.10;0.45;;;;;;;20.87;50.45;98008.28;5014213;28;20473;-62
2023/04/24 09:30:11;;;;;;;1.48;0.50;;;;;;;18.51;56.91;98025.81;4998423;28;20049;-62
2023/04/24 09:33:17;;;;;;;2.85;0.80;;;;;;;17.03;61.42;98022.63;5002960;28;20115;-61
2023/04/24 09:35:48;;;;;;;3.53;0.68;;;;;;;18.49;61.28;98024.44;5018032;28;20033;-62
2023/04/24 09:38:15;;;;;;;1.90;0.60;;;;;;;21.88;52.84;98016.50;4992674;28;20105;-62
2023/04/24 09:40:41;;;;;;;1.55;0.70;;;;;;;21.71;50.52;98019.75;4999661;28;20068;-62
2023/04/24 09:43:10;;;;;;;2.20;0.60;;;;;;;18.79;56.41;98023.66;5024497;28;20049;-63
2023/04/24 09:45:37;;;;;;;1.65;0.63;;;;;;;16.70;63.81;98018.28;5005768;28;20378;-61
2023/04/24 09:48:17;;;;;;;26.25;1.02;;;;;;;15.95;69.98;98034.53;5011694;28;20105;-62
2023/04/24 09:50:46;;;;;;;1.98;0.60;;;;;;;15.51;71.36;98029.09;5010070;28;20120;-62
2023/04/24 09:53:12;;;;;;;;;;;;;;;14.69;79.11;98036.97;5030816;28;20048;-62
2023/04/24 09:55:45;;;;;;;2.22;0.63;;;;;;;15.09;79.57;98055.00;5003737;28;19916;-62
2023/04/24 09:58:11;;;;;;;2.83;0.90;;;;;;;15.12;76.69;98050.97;4987491;28;20036;-68
2023/04/24 10:00:37;;;;;;;1.13;0.57;;;;;;;15.02;74.44;98070.72;5001134;28;20022;-69
2023/04/24 10:03:05;;;;;;;1.00;0.70;;;;;;;14.40;77.92;98073.50;5025373;28;20030;-69
2023/04/24 10:05:36;;;;;;;2.20;0.73;;;;;;;14.90;76.64;98070.78;5011677;28;20137;-67
2023/04/24 10:08:04;;;;;;;1.65;0.60;;;;;;;14.86;71.49;98069.66;5006056;28;20469;-68
2023/04/24 10:10:36;;;;;;;2.20;0.88;;;;;;;14.93;73.15;98076.81;4993806;28;20026;-68
2023/04/24 10:13:03;;;;;;;1.75;0.63;;;;;;;16.22;69.11;98067.28;5011335;28;20021;-68
2023/04/24 10:15:30;;;;;;;1.38;0.65;;;;;;;17.02;63.15;98064.69;4999651;28;20013;-68
2023/04/24 10:17:57;;;;;;;8.68;0.90;;;;;;;17.49;61.67;98066.59;4994467;28;20117;-63
2023/04/24 10:20:25;;;;;;;2.70;0.90;;;;;;;16.72;64.09;98063.38;4991673;28;20026;-68
2023/04/24 10:22:53;;;;;;;1.38;0.77;;;;;;;15.83;64.71;98067.44;5009250;28;20367;-68
2023/04/24 10:25:21;;;;;;;1.10;0.60;;;;;;;15.20;68.03;98057.88;5001634;28;20075;-68
2023/04/24 10:27:48;;;;;;;2.00;0.60;;;;;;;13.94;77.23;98076.22;4996056;28;20034;-68
2023/04/24 10:30:15;;;;;;;2.05;0.80;;;;;;;13.24;99.81;98079.09;4997006;28;20018;-68
2023/04/24 10:32:40;;;;;;;3.13;0.90;;;;;;;13.09;92.60;98079.56;4994785;28;20037;-68
2023/04/24 10:35:08;;;;;;;1.80;0.90;;;;;;;12.97;100.00;98098.59;5004923;28;20026;-68
2023/04/24 10:37:37;;;;;;;1.95;0.82;;;;;;;12.77;97.25;98095.41;4998412;28;20077;-68
2023/04/24 10:40:04;;;;;;;1.95;1.00;;;;;;;12.59;98.20;98096.31;4988187;28;20095;-69
2023/04/24 10:42:30;;;;;;;4.93;1.10;;;;;;;12.18;100.00;98103.41;4989018;28;20052;-62
2023/04/24 10:44:57;;;;;;;1.48;0.80;;;;;;;12.50;100.00;98095.84;4990314;28;22113;-62
2023/04/24 10:47:23;;;;;;;4.55;1.10;;;;;;;12.32;100.00;98094.03;4996270;28;20033;-68
2023/04/24 10:49:51;;;;;;;1.52;0.82;;;;;;;12.41;100.00;98103.47;4992235;28;20030;-68
2023/04/24 10:52:16;;;;;;;2.78;1.15;;;;;;;12.56;100.00;98113.06;4996768;28;20072;-69
2023/04/24 10:54:44;;;;;;;2.58;1.10;;;;;;;13.46;96.81;98114.63;4998973;28;20022;-67
2023/04/24 10:57:29;;;;;;;4.93;1.00;;;;;;;13.62;91.73;98113.88;5023977;28;20036;-68
2023/04/24 11:00:19;;;;;;;4.07;1.00;;;;;;;14.20;87.97;98114.75;5000755;28;20041;-63
2023/04/24 11:02:52;;;;;;;1.42;0.90;;;;;;;17.19;75.28;98105.53;5000358;28;20066;-68
2023/04/24 11:05:19;;;;;;;2.72;1.10;;;;;;;18.80;63.26;98096.53;4998067;28;20038;-63
2023/04/24 11:08:12;;;;;;;2.58;1.13;;;;;;;17.83;63.18;98105.34;5008680;28;20113;-62
2023/04/24 11:10:54;;;;;;;2.65;1.10;;;;;;;17.68;62.35;98108.81;5015345;28;20080;-62
2023/04/24 11:13:25;;;;;;;3.60;1.25;;;;;;;16.69;62.78;98112.22;5003122;28;20046;-69
2023/04/24 11:16:20;;;;;;;1.50;0.90;;;;;;;16.59;64.24;98126.63;4992365;28;20453;-68
2023/04/24 11:18:52;;;;;;;2.13;1.08;;;;;;;18.40;60.52;98114.56;4993907;28;20034;-69
2023/04/24 11:21:18;;;;;;;2.85;0.80;;;;;;;16.73;60.67;98119.63;4989731;28;20026;-69
2023/04/24 11:23:45;;;;;;;1.23;0.90;;;;;;;17.02;63.61;98108.41;5012957;28;20018;-69
2023/04/24 11:26:18;;;;;;;2.80;1.10;;;;;;;15.19;69.64;98118.88;4994367;28;20025;-69